sensor_id;sensor_type;location;lat;lon;timestamp;pressure;altitude;pressure_sealevel;temperature;humidity
78839;BME280;68405;47.190;27.558;2023-03-23T00:00:27;99788.58;;;7.92;64.08
78839;BME280;68405;47.190;27.558;2023-03-23T00:03:16;99785.25;;;7.94;64.24
78839;BME280;68405;47.190;27.558;2023-03-23T00:05:50;99786.55;;;7.90;64.15
78839;BME280;68405;47.190;27.558;2023-03-23T00:08:22;99786.16;;;7.85;64.25
78839;BME280;68405;47.190;27.558;2023-03-23T00:10:54;99788.20;;;7.79;64.43
78839;BME280;68405;47.190;27.558;2023-03-23T00:13:27;99785.23;;;7.73;64.44
78839;BME280;68405;47.190;27.558;2023-03-23T00:15:59;99782.52;;;7.71;64.47
78839;BME280;68405;47.190;27.558;2023-03-23T00:18:32;99782.15;;;7.73;64.39
78839;BME280;68405;47.190;27.558;2023-03-23T00:21:06;99777.11;;;7.74;64.49
78839;BME280;68405;47.190;27.558;2023-03-23T00:23:38;99779.02;;;7.73;64.58
78839;BME280;68405;47.190;27.558;2023-03-23T00:26:10;99773.30;;;7.73;64.60
78839;BME280;68405;47.190;27.558;2023-03-23T00:28:42;99773.15;;;7.72;64.72
78839;BME280;68405;47.190;27.558;2023-03-23T00:31:16;99772.99;;;7.72;65.32
78839;BME280;68405;47.190;27.558;2023-03-23T00:33:49;99772.77;;;7.73;64.98
78839;BME280;68405;47.190;27.558;2023-03-23T00:36:21;99771.27;;;7.79;64.93
78839;BME280;68405;47.190;27.558;2023-03-23T00:38:53;99770.75;;;7.86;64.77
78839;BME280;68405;47.190;27.558;2023-03-23T00:41:29;99770.97;;;7.91;65.00
78839;BME280;68405;47.190;27.558;2023-03-23T00:44:01;99767.73;;;7.96;64.93
78839;BME280;68405;47.190;27.558;2023-03-23T00:46:32;99766.48;;;7.98;64.96
78839;BME280;68405;47.190;27.558;2023-03-23T00:49:04;99760.25;;;7.98;64.95
78839;BME280;68405;47.190;27.558;2023-03-23T00:51:36;99761.92;;;7.93;65.01
78839;BME280;68405;47.190;27.558;2023-03-23T00:54:08;99762.38;;;7.89;65.04
78839;BME280;68405;47.190;27.558;2023-03-23T00:56:40;99759.98;;;7.87;64.97
78839;BME280;68405;47.190;27.558;2023-03-23T00:59:12;99757.14;;;7.90;65.01
78839;BME280;68405;47.190;27.558;2023-03-23T01:01:44;99758.77;;;7.95;64.97
78839;BME280;68405;47.190;27.558;2023-03-23T01:04:16;99757.30;;;7.98;65.00
78839;BME280;68405;47.190;27.558;2023-03-23T01:06:51;99754.32;;;7.99;65.02
78839;BME280;68405;47.190;27.558;2023-03-23T01:09:22;99751.43;;;7.97;65.03
78839;BME280;68405;47.190;27.558;2023-03-23T01:11:54;99753.42;;;7.94;65.12
78839;BME280;68405;47.190;27.558;2023-03-23T01:14:27;99756.98;;;7.90;65.38
78839;BME280;68405;47.190;27.558;2023-03-23T01:16:59;99752.90;;;7.87;65.22
78839;BME280;68405;47.190;27.558;2023-03-23T01:19:30;99752.10;;;7.85;65.21
78839;BME280;68405;47.190;27.558;2023-03-23T01:22:02;99752.27;;;7.85;65.42
78839;BME280;68405;47.190;27.558;2023-03-23T01:24:34;99749.61;;;7.87;65.26
78839;BME280;68405;47.190;27.558;2023-03-23T01:27:06;99745.94;;;7.89;65.36
78839;BME280;68405;47.190;27.558;2023-03-23T01:29:37;99744.73;;;7.89;65.30
78839;BME280;68405;47.190;27.558;2023-03-23T01:32:09;99741.66;;;7.87;65.49
78839;BME280;68405;47.190;27.558;2023-03-23T01:34:41;99741.04;;;7.85;65.52
78839;BME280;68405;47.190;27.558;2023-03-23T01:37:13;99740.28;;;7.80;65.52
78839;BME280;68405;47.190;27.558;2023-03-23T01:39:45;99738.67;;;7.75;65.62
78839;BME280;68405;47.190;27.558;2023-03-23T01:42:17;99736.64;;;7.74;65.73
78839;BME280;68405;47.190;27.558;2023-03-23T01:45:31;99739.67;;;7.77;65.74
78839;BME280;68405;47.190;27.558;2023-03-23T01:48:08;99740.40;;;7.82;65.80
78839;BME280;68405;47.190;27.558;2023-03-23T01:50:46;99741.02;;;7.85;65.59
78839;BME280;68405;47.190;27.558;2023-03-23T01:53:21;99743.98;;;7.84;65.63
78839;BME280;68405;47.190;27.558;2023-03-23T01:55:55;99743.70;;;7.82;65.58
78839;BME280;68405;47.190;27.558;2023-03-23T01:58:31;99742.73;;;7.79;65.95
78839;BME280;68405;47.190;27.558;2023-03-23T02:01:06;99741.63;;;7.75;65.86
78839;BME280;68405;47.190;27.558;2023-03-23T02:03:44;99742.54;;;7.73;65.96
78839;BME280;68405;47.190;27.558;2023-03-23T02:06:18;99738.50;;;7.76;66.16
78839;BME280;68405;47.190;27.558;2023-03-23T02:08:50;99735.48;;;7.78;65.98
78839;BME280;68405;47.190;27.558;2023-03-23T02:11:23;99734.61;;;7.79;65.90
78839;BME280;68405;47.190;27.558;2023-03-23T02:13:55;99735.90;;;7.76;65.97
78839;BME280;68405;47.190;27.558;2023-03-23T02:16:35;99735.54;;;7.70;66.02
78839;BME280;68405;47.190;27.558;2023-03-23T02:19:22;99737.46;;;7.62;66.08
78839;BME280;68405;47.190;27.558;2023-03-23T02:25:19;99736.39;;;7.49;66.37
78839;BME280;68405;47.190;27.558;2023-03-23T02:28:14;99736.92;;;7.48;66.28
78839;BME280;68405;47.190;27.558;2023-03-23T02:31:05;99733.53;;;7.46;66.55
78839;BME280;68405;47.190;27.558;2023-03-23T02:33:45;99730.78;;;7.37;66.68
78839;BME280;68405;47.190;27.558;2023-03-23T02:36:25;99731.59;;;7.32;67.24
78839;BME280;68405;47.190;27.558;2023-03-23T02:39:05;99734.09;;;7.28;67.03
78839;BME280;68405;47.190;27.558;2023-03-23T02:41:42;99735.33;;;7.27;67.26
78839;BME280;68405;47.190;27.558;2023-03-23T02:44:17;99735.13;;;7.29;67.35
78839;BME280;68405;47.190;27.558;2023-03-23T02:46:50;99737.39;;;7.28;67.28
78839;BME280;68405;47.190;27.558;2023-03-23T02:49:24;99741.00;;;7.21;67.42
78839;BME280;68405;47.190;27.558;2023-03-23T02:51:57;99742.21;;;7.14;67.20
78839;BME280;68405;47.190;27.558;2023-03-23T02:54:30;99737.33;;;7.08;67.11
78839;BME280;68405;47.190;27.558;2023-03-23T02:57:02;99739.96;;;7.06;67.22
78839;BME280;68405;47.190;27.558;2023-03-23T02:59:34;99738.40;;;7.06;67.17
78839;BME280;68405;47.190;27.558;2023-03-23T03:02:12;99740.95;;;7.09;67.67
78839;BME280;68405;47.190;27.558;2023-03-23T03:04:48;99743.59;;;7.14;67.35
78839;BME280;68405;47.190;27.558;2023-03-23T03:07:45;99743.55;;;7.16;67.26
78839;BME280;68405;47.190;27.558;2023-03-23T03:10:25;99743.44;;;7.13;67.25
78839;BME280;68405;47.190;27.558;2023-03-23T03:13:05;99743.19;;;7.09;67.45
78839;BME280;68405;47.190;27.558;2023-03-23T03:15:45;99745.36;;;7.04;67.40
78839;BME280;68405;47.190;27.558;2023-03-23T03:18:24;99744.92;;;7.01;67.46
78839;BME280;68405;47.190;27.558;2023-03-23T03:21:02;99746.08;;;7.03;67.45
78839;BME280;68405;47.190;27.558;2023-03-23T03:23:37;99748.85;;;7.03;67.16
78839;BME280;68405;47.190;27.558;2023-03-23T03:26:13;99753.21;;;7.01;67.38
78839;BME280;68405;47.190;27.558;2023-03-23T03:28:48;99753.34;;;6.94;67.49
78839;BME280;68405;47.190;27.558;2023-03-23T03:31:22;99757.48;;;6.86;67.40
78839;BME280;68405;47.190;27.558;2023-03-23T03:33:55;99760.76;;;6.78;67.86
78839;BME280;68405;47.190;27.558;2023-03-23T03:36:28;99764.64;;;6.74;67.77
78839;BME280;68405;47.190;27.558;2023-03-23T03:39:07;99761.60;;;6.71;67.72
78839;BME280;68405;47.190;27.558;2023-03-23T03:41:39;99765.42;;;6.70;67.61
78839;BME280;68405;47.190;27.558;2023-03-23T03:44:11;99766.48;;;6.69;67.71
78839;BME280;68405;47.190;27.558;2023-03-23T03:46:43;99765.89;;;6.64;67.50
78839;BME280;68405;47.190;27.558;2023-03-23T03:49:15;99768.83;;;6.55;67.72
78839;BME280;68405;47.190;27.558;2023-03-23T03:51:46;99769.70;;;6.45;67.91
78839;BME280;68405;47.190;27.558;2023-03-23T03:54:18;99766.20;;;6.39;67.94
78839;BME280;68405;47.190;27.558;2023-03-23T03:56:50;99766.52;;;6.32;67.84
78839;BME280;68405;47.190;27.558;2023-03-23T03:59:21;99768.99;;;6.28;67.67
78839;BME280;68405;47.190;27.558;2023-03-23T04:01:53;99770.36;;;6.28;68.22
78839;BME280;68405;47.190;27.558;2023-03-23T04:04:25;99772.38;;;6.33;68.70
78839;BME280;68405;47.190;27.558;2023-03-23T04:06:57;99777.78;;;6.38;68.77
78839;BME280;68405;47.190;27.558;2023-03-23T04:09:29;99778.98;;;6.39;68.90
78839;BME280;68405;47.190;27.558;2023-03-23T04:12:01;99778.11;;;6.39;68.85
78839;BME280;68405;47.190;27.558;2023-03-23T04:14:33;99782.34;;;6.43;68.60
78839;BME280;68405;47.190;27.558;2023-03-23T04:17:05;99779.46;;;6.50;69.03
78839;BME280;68405;47.190;27.558;2023-03-23T04:19:39;99778.63;;;6.57;69.12
78839;BME280;68405;47.190;27.558;2023-03-23T04:22:11;99776.84;;;6.60;68.85
78839;BME280;68405;47.190;27.558;2023-03-23T04:24:43;99774.37;;;6.62;68.85
78839;BME280;68405;47.190;27.558;2023-03-23T04:27:15;99776.88;;;6.67;68.83
78839;BME280;68405;47.190;27.558;2023-03-23T04:29:47;99777.20;;;6.76;68.73
78839;BME280;68405;47.190;27.558;2023-03-23T04:32:19;99773.03;;;6.86;68.59
78839;BME280;68405;47.190;27.558;2023-03-23T04:34:51;99773.50;;;6.96;68.45
78839;BME280;68405;47.190;27.558;2023-03-23T04:37:23;99775.52;;;7.07;68.52
78839;BME280;68405;47.190;27.558;2023-03-23T04:39:59;99779.58;;;7.19;68.57
78839;BME280;68405;47.190;27.558;2023-03-23T04:42:32;99780.46;;;7.33;68.45
78839;BME280;68405;47.190;27.558;2023-03-23T04:45:05;99783.14;;;7.52;68.02
78839;BME280;68405;47.190;27.558;2023-03-23T04:47:38;99781.02;;;7.83;67.83
78839;BME280;68405;47.190;27.558;2023-03-23T04:50:13;99781.28;;;8.27;67.39
78839;BME280;68405;47.190;27.558;2023-03-23T04:52:44;99780.30;;;8.58;67.07
78839;BME280;68405;47.190;27.558;2023-03-23T04:55:16;99785.16;;;9.00;66.64
78839;BME280;68405;47.190;27.558;2023-03-23T04:57:49;99787.33;;;9.43;66.19
78839;BME280;68405;47.190;27.558;2023-03-23T05:00:22;99791.84;;;9.97;65.77
78839;BME280;68405;47.190;27.558;2023-03-23T05:02:54;99790.70;;;10.70;65.03
78839;BME280;68405;47.190;27.558;2023-03-23T05:05:26;99791.04;;;11.27;64.12
78839;BME280;68405;47.190;27.558;2023-03-23T05:08:00;99788.76;;;11.67;63.23
78839;BME280;68405;47.190;27.558;2023-03-23T05:10:32;99788.73;;;12.10;62.44
78839;BME280;68405;47.190;27.558;2023-03-23T05:13:05;99787.96;;;12.69;62.09
78839;BME280;68405;47.190;27.558;2023-03-23T05:15:36;99789.55;;;13.37;61.16
78839;BME280;68405;47.190;27.558;2023-03-23T05:18:09;99795.23;;;14.11;60.21
78839;BME280;68405;47.190;27.558;2023-03-23T05:20:41;99799.97;;;14.79;59.37
78839;BME280;68405;47.190;27.558;2023-03-23T05:23:14;99798.15;;;15.60;58.41
78839;BME280;68405;47.190;27.558;2023-03-23T05:25:51;99796.80;;;16.44;57.08
78839;BME280;68405;47.190;27.558;2023-03-23T05:28:24;99798.38;;;17.24;56.05
78839;BME280;68405;47.190;27.558;2023-03-23T05:30:57;99797.90;;;18.05;54.92
78839;BME280;68405;47.190;27.558;2023-03-23T05:33:29;99802.91;;;18.84;53.52
78839;BME280;68405;47.190;27.558;2023-03-23T05:36:01;99798.77;;;19.43;52.07
78839;BME280;68405;47.190;27.558;2023-03-23T05:38:34;99800.23;;;19.86;51.07
78839;BME280;68405;47.190;27.558;2023-03-23T05:41:07;99803.23;;;20.38;50.52
78839;BME280;68405;47.190;27.558;2023-03-23T05:43:39;99803.31;;;20.85;50.05
78839;BME280;68405;47.190;27.558;2023-03-23T05:46:10;99808.88;;;21.37;49.36
78839;BME280;68405;47.190;27.558;2023-03-23T05:48:42;99811.25;;;21.91;48.61
78839;BME280;68405;47.190;27.558;2023-03-23T05:51:14;99813.36;;;22.52;48.21
78839;BME280;68405;47.190;27.558;2023-03-23T05:53:46;99818.20;;;23.13;47.59
78839;BME280;68405;47.190;27.558;2023-03-23T05:56:18;99822.34;;;23.65;46.09
78839;BME280;68405;47.190;27.558;2023-03-23T05:58:51;99821.17;;;24.01;45.35
78839;BME280;68405;47.190;27.558;2023-03-23T06:01:23;99822.02;;;24.46;44.41
78839;BME280;68405;47.190;27.558;2023-03-23T06:03:55;99823.40;;;24.89;43.52
78839;BME280;68405;47.190;27.558;2023-03-23T06:06:29;99820.92;;;25.36;43.19
78839;BME280;68405;47.190;27.558;2023-03-23T06:09:02;99821.25;;;25.91;42.34
78839;BME280;68405;47.190;27.558;2023-03-23T06:11:34;99823.66;;;26.44;41.48
78839;BME280;68405;47.190;27.558;2023-03-23T06:14:06;99825.39;;;26.79;40.42
78839;BME280;68405;47.190;27.558;2023-03-23T06:16:38;99831.64;;;27.06;39.68
78839;BME280;68405;47.190;27.558;2023-03-23T06:19:11;99831.74;;;27.40;39.31
78839;BME280;68405;47.190;27.558;2023-03-23T06:21:43;99836.91;;;27.82;38.27
78839;BME280;68405;47.190;27.558;2023-03-23T06:24:14;99839.38;;;28.07;37.70
78839;BME280;68405;47.190;27.558;2023-03-23T06:26:46;99835.97;;;28.37;37.24
78839;BME280;68405;47.190;27.558;2023-03-23T06:29:18;99835.70;;;28.75;37.32
78839;BME280;68405;47.190;27.558;2023-03-23T06:31:54;99834.41;;;29.28;35.99
78839;BME280;68405;47.190;27.558;2023-03-23T06:34:27;99837.66;;;29.63;35.22
78839;BME280;68405;47.190;27.558;2023-03-23T06:36:58;99838.59;;;29.89;34.31
78839;BME280;68405;47.190;27.558;2023-03-23T06:39:30;99840.46;;;30.02;34.00
78839;BME280;68405;47.190;27.558;2023-03-23T06:42:02;99840.27;;;30.21;32.82
78839;BME280;68405;47.190;27.558;2023-03-23T06:44:35;99844.41;;;30.24;32.63
78839;BME280;68405;47.190;27.558;2023-03-23T06:47:08;99843.67;;;30.44;31.89
78839;BME280;68405;47.190;27.558;2023-03-23T06:49:39;99848.16;;;30.77;31.91
78839;BME280;68405;47.190;27.558;2023-03-23T06:52:12;99849.92;;;31.10;31.70
78839;BME280;68405;47.190;27.558;2023-03-23T06:54:43;99850.39;;;31.39;30.88
78839;BME280;68405;47.190;27.558;2023-03-23T06:57:15;99849.36;;;31.79;30.97
78839;BME280;68405;47.190;27.558;2023-03-23T06:59:47;99855.87;;;32.24;29.47
78839;BME280;68405;47.190;27.558;2023-03-23T07:02:19;99855.77;;;32.51;29.32
78839;BME280;68405;47.190;27.558;2023-03-23T07:04:52;99850.42;;;32.78;28.59
78839;BME280;68405;47.190;27.558;2023-03-23T07:07:24;99853.85;;;33.07;28.31
78839;BME280;68405;47.190;27.558;2023-03-23T07:09:56;99850.20;;;33.25;27.59
78839;BME280;68405;47.190;27.558;2023-03-23T07:12:28;99851.20;;;33.53;27.28
78839;BME280;68405;47.190;27.558;2023-03-23T07:15:00;99856.05;;;33.72;26.38
78839;BME280;68405;47.190;27.558;2023-03-23T07:17:32;99854.38;;;33.66;25.81
78839;BME280;68405;47.190;27.558;2023-03-23T07:20:05;99856.08;;;33.82;25.98
78839;BME280;68405;47.190;27.558;2023-03-23T07:22:37;99854.48;;;34.03;25.33
78839;BME280;68405;47.190;27.558;2023-03-23T07:25:10;99855.30;;;34.23;25.04
78839;BME280;68405;47.190;27.558;2023-03-23T07:27:43;99858.75;;;34.48;24.67
78839;BME280;68405;47.190;27.558;2023-03-23T07:30:16;99861.98;;;34.51;24.04
78839;BME280;68405;47.190;27.558;2023-03-23T07:32:48;99863.05;;;34.57;23.77
78839;BME280;68405;47.190;27.558;2023-03-23T07:35:20;99860.89;;;34.77;22.97
78839;BME280;68405;47.190;27.558;2023-03-23T07:37:52;99859.70;;;34.58;21.72
78839;BME280;68405;47.190;27.558;2023-03-23T07:40:25;99855.05;;;34.47;22.03
78839;BME280;68405;47.190;27.558;2023-03-23T07:42:58;99853.92;;;34.31;21.18
78839;BME280;68405;47.190;27.558;2023-03-23T07:45:31;99856.13;;;34.22;21.54
78839;BME280;68405;47.190;27.558;2023-03-23T07:48:03;99856.43;;;34.40;21.24
78839;BME280;68405;47.190;27.558;2023-03-23T07:50:35;99855.95;;;34.59;20.76
78839;BME280;68405;47.190;27.558;2023-03-23T07:53:07;99857.27;;;34.93;20.31
78839;BME280;68405;47.190;27.558;2023-03-23T07:55:40;99854.41;;;35.02;20.20
78839;BME280;68405;47.190;27.558;2023-03-23T07:58:12;99854.81;;;35.22;19.50
78839;BME280;68405;47.190;27.558;2023-03-23T08:00:50;99859.27;;;35.05;18.10
78839;BME280;68405;47.190;27.558;2023-03-23T08:03:24;99857.87;;;34.66;18.88
78839;BME280;68405;47.190;27.558;2023-03-23T08:05:59;99853.81;;;34.58;18.74
78839;BME280;68405;47.190;27.558;2023-03-23T08:08:31;99852.70;;;34.72;18.89
78839;BME280;68405;47.190;27.558;2023-03-23T08:11:04;99852.98;;;34.88;18.61
78839;BME280;68405;47.190;27.558;2023-03-23T08:13:36;99852.88;;;35.00;18.18
78839;BME280;68405;47.190;27.558;2023-03-23T08:16:09;99844.77;;;34.59;17.58
78839;BME280;68405;47.190;27.558;2023-03-23T08:18:41;99843.33;;;34.18;18.26
78839;BME280;68405;47.190;27.558;2023-03-23T08:21:14;99845.23;;;33.51;17.93
78839;BME280;68405;47.190;27.558;2023-03-23T08:23:46;99846.13;;;32.75;18.20
78839;BME280;68405;47.190;27.558;2023-03-23T08:26:18;99851.02;;;32.18;18.77
78839;BME280;68405;47.190;27.558;2023-03-23T08:28:50;99854.30;;;31.74;19.04
78839;BME280;68405;47.190;27.558;2023-03-23T08:31:22;99856.52;;;31.34;19.26
78839;BME280;68405;47.190;27.558;2023-03-23T08:33:55;99858.24;;;31.33;19.30
78839;BME280;68405;47.190;27.558;2023-03-23T08:36:27;99852.45;;;31.01;19.06
78839;BME280;68405;47.190;27.558;2023-03-23T08:38:59;99854.33;;;30.96;19.52
78839;BME280;68405;47.190;27.558;2023-03-23T08:41:31;99854.40;;;30.96;19.28
78839;BME280;68405;47.190;27.558;2023-03-23T08:44:04;99851.02;;;31.03;19.12
78839;BME280;68405;47.190;27.558;2023-03-23T08:46:38;99845.63;;;31.42;19.00
78839;BME280;68405;47.190;27.558;2023-03-23T08:49:11;99844.71;;;31.76;18.57
78839;BME280;68405;47.190;27.558;2023-03-23T08:51:43;99846.23;;;32.03;18.58
78839;BME280;68405;47.190;27.558;2023-03-23T08:54:15;99852.04;;;32.50;17.90
78839;BME280;68405;47.190;27.558;2023-03-23T08:56:47;99845.51;;;32.63;18.02
78839;BME280;68405;47.190;27.558;2023-03-23T08:59:20;99846.73;;;32.94;18.07
78839;BME280;68405;47.190;27.558;2023-03-23T09:01:52;99844.10;;;33.10;17.80
78839;BME280;68405;47.190;27.558;2023-03-23T09:04:24;99841.89;;;33.07;17.84
78839;BME280;68405;47.190;27.558;2023-03-23T09:06:57;99841.56;;;33.10;17.78
78839;BME280;68405;47.190;27.558;2023-03-23T09:09:29;99840.95;;;33.30;17.39
78839;BME280;68405;47.190;27.558;2023-03-23T09:12:04;99834.92;;;33.63;17.83
78839;BME280;68405;47.190;27.558;2023-03-23T09:14:36;99831.63;;;34.20;17.18
78839;BME280;68405;47.190;27.558;2023-03-23T09:17:09;99827.09;;;34.41;17.14
78839;BME280;68405;47.190;27.558;2023-03-23T09:19:42;99828.02;;;34.71;17.08
78839;BME280;68405;47.190;27.558;2023-03-23T09:22:14;99832.08;;;34.93;16.52
78839;BME280;68405;47.190;27.558;2023-03-23T09:24:50;99828.22;;;34.89;16.12
78839;BME280;68405;47.190;27.558;2023-03-23T09:27:22;99825.59;;;34.73;15.54
78839;BME280;68405;47.190;27.558;2023-03-23T09:29:55;99820.11;;;34.23;15.70
78839;BME280;68405;47.190;27.558;2023-03-23T09:32:27;99818.07;;;33.82;15.78
78839;BME280;68405;47.190;27.558;2023-03-23T09:34:59;99808.88;;;33.49;15.91
78839;BME280;68405;47.190;27.558;2023-03-23T09:37:32;99803.90;;;33.45;15.74
78839;BME280;68405;47.190;27.558;2023-03-23T09:40:10;99802.56;;;33.08;16.02
78839;BME280;68405;47.190;27.558;2023-03-23T09:42:56;99800.70;;;33.00;15.48
78839;BME280;68405;47.190;27.558;2023-03-23T09:45:34;99794.45;;;32.68;16.03
78839;BME280;68405;47.190;27.558;2023-03-23T09:48:26;99792.61;;;32.50;16.06
78839;BME280;68405;47.190;27.558;2023-03-23T09:51:11;99786.96;;;32.34;16.40
78839;BME280;68405;47.190;27.558;2023-03-23T09:53:49;99780.52;;;32.27;16.31
78839;BME280;68405;47.190;27.558;2023-03-23T09:56:23;99777.64;;;32.08;16.25
78839;BME280;68405;47.190;27.558;2023-03-23T09:59:00;99774.63;;;32.15;16.25
78839;BME280;68405;47.190;27.558;2023-03-23T10:01:36;99770.85;;;32.39;16.19
78839;BME280;68405;47.190;27.558;2023-03-23T10:04:12;99769.20;;;32.41;16.21
78839;BME280;68405;47.190;27.558;2023-03-23T10:06:47;99773.89;;;32.55;15.90
78839;BME280;68405;47.190;27.558;2023-03-23T10:09:20;99773.94;;;32.56;15.51
78839;BME280;68405;47.190;27.558;2023-03-23T10:12:01;99765.23;;;32.21;15.25
78839;BME280;68405;47.190;27.558;2023-03-23T10:14:47;99769.80;;;31.83;15.26
78839;BME280;68405;47.190;27.558;2023-03-23T10:17:29;99761.84;;;31.27;15.31
78839;BME280;68405;47.190;27.558;2023-03-23T10:20:27;99764.23;;;31.01;15.19
78839;BME280;68405;47.190;27.558;2023-03-23T10:23:09;99756.18;;;30.65;15.68
78839;BME280;68405;47.190;27.558;2023-03-23T10:25:48;99754.80;;;30.50;15.58
78839;BME280;68405;47.190;27.558;2023-03-23T10:28:37;99748.30;;;30.25;15.46
78839;BME280;68405;47.190;27.558;2023-03-23T10:31:15;99746.66;;;30.07;15.76
78839;BME280;68405;47.190;27.558;2023-03-23T10:33:51;99747.85;;;29.63;16.00
78839;BME280;68405;47.190;27.558;2023-03-23T10:36:27;99741.31;;;29.19;16.04
78839;BME280;68405;47.190;27.558;2023-03-23T10:39:08;99743.34;;;28.73;16.22
78839;BME280;68405;47.190;27.558;2023-03-23T10:41:43;99736.31;;;28.30;16.52
78839;BME280;68405;47.190;27.558;2023-03-23T10:44:18;99736.92;;;27.98;16.73
78839;BME280;68405;47.190;27.558;2023-03-23T10:46:53;99736.98;;;27.47;16.91
78839;BME280;68405;47.190;27.558;2023-03-23T10:49:31;99729.16;;;27.21;17.51
78839;BME280;68405;47.190;27.558;2023-03-23T10:52:13;99733.27;;;27.23;17.46
78839;BME280;68405;47.190;27.558;2023-03-23T10:54:54;99731.79;;;27.25;17.60
78839;BME280;68405;47.190;27.558;2023-03-23T10:57:28;99726.27;;;27.23;17.48
78839;BME280;68405;47.190;27.558;2023-03-23T11:00:03;99722.58;;;27.36;17.58
78839;BME280;68405;47.190;27.558;2023-03-23T11:02:44;99720.17;;;27.56;17.45
78839;BME280;68405;47.190;27.558;2023-03-23T11:05:21;99714.52;;;27.79;17.15
78839;BME280;68405;47.190;27.558;2023-03-23T11:07:56;99716.90;;;27.81;17.05
78839;BME280;68405;47.190;27.558;2023-03-23T11:10:36;99710.33;;;27.70;17.39
78839;BME280;68405;47.190;27.558;2023-03-23T11:13:14;99710.05;;;27.96;17.16
78839;BME280;68405;47.190;27.558;2023-03-23T11:15:49;99711.72;;;28.02;16.69
78839;BME280;68405;47.190;27.558;2023-03-23T11:18:23;99702.46;;;27.69;16.80
78839;BME280;68405;47.190;27.558;2023-03-23T11:20:58;99700.14;;;27.51;17.03
78839;BME280;68405;47.190;27.558;2023-03-23T11:23:32;99698.32;;;27.24;17.35
78839;BME280;68405;47.190;27.558;2023-03-23T11:26:12;99697.21;;;27.08;17.53
78839;BME280;68405;47.190;27.558;2023-03-23T11:28:48;99692.81;;;26.84;17.62
78839;BME280;68405;47.190;27.558;2023-03-23T11:31:27;99692.70;;;26.73;17.70
78839;BME280;68405;47.190;27.558;2023-03-23T11:34:02;99690.91;;;26.61;17.58
78839;BME280;68405;47.190;27.558;2023-03-23T11:36:37;99684.09;;;26.53;17.69
78839;BME280;68405;47.190;27.558;2023-03-23T11:39:24;99682.77;;;26.52;17.77
78839;BME280;68405;47.190;27.558;2023-03-23T11:41:59;99679.14;;;26.53;17.62
78839;BME280;68405;47.190;27.558;2023-03-23T11:44:41;99673.25;;;26.53;17.58
78839;BME280;68405;47.190;27.558;2023-03-23T11:47:20;99674.12;;;26.24;17.75
78839;BME280;68405;47.190;27.558;2023-03-23T11:50:03;99664.56;;;26.13;17.69
78839;BME280;68405;47.190;27.558;2023-03-23T11:52:44;99666.02;;;26.11;17.61
78839;BME280;68405;47.190;27.558;2023-03-23T11:55:23;99664.70;;;25.75;17.42
78839;BME280;68405;47.190;27.558;2023-03-23T11:58:04;99653.23;;;25.26;17.72
78839;BME280;68405;47.190;27.558;2023-03-23T12:00:45;99646.59;;;24.91;18.19
78839;BME280;68405;47.190;27.558;2023-03-23T12:04:00;99641.00;;;24.71;18.59
78839;BME280;68405;47.190;27.558;2023-03-23T12:06:43;99638.48;;;24.59;18.74
78839;BME280;68405;47.190;27.558;2023-03-23T12:09:32;99636.58;;;24.45;18.67
78839;BME280;68405;47.190;27.558;2023-03-23T12:12:21;99633.20;;;24.34;18.70
78839;BME280;68405;47.190;27.558;2023-03-23T12:15:06;99624.64;;;24.24;18.68
78839;BME280;68405;47.190;27.558;2023-03-23T12:17:48;99621.83;;;24.10;19.00
78839;BME280;68405;47.190;27.558;2023-03-23T12:20:35;99616.02;;;24.06;19.08
78839;BME280;68405;47.190;27.558;2023-03-23T12:23:21;99618.09;;;23.97;19.44
78839;BME280;68405;47.190;27.558;2023-03-23T12:29:24;99616.86;;;23.55;19.41
78839;BME280;68405;47.190;27.558;2023-03-23T12:32:23;99608.67;;;23.59;19.71
78839;BME280;68405;47.190;27.558;2023-03-23T12:35:10;99611.13;;;23.58;19.44
78839;BME280;68405;47.190;27.558;2023-03-23T12:37:55;99607.95;;;23.46;19.78
78839;BME280;68405;47.190;27.558;2023-03-23T12:40:47;99609.77;;;23.12;20.14
78839;BME280;68405;47.190;27.558;2023-03-23T12:43:31;99606.94;;;22.97;20.24
78839;BME280;68405;47.190;27.558;2023-03-23T12:46:30;99605.11;;;22.83;20.20
78839;BME280;68405;47.190;27.558;2023-03-23T12:49:09;99601.73;;;22.83;20.23
78839;BME280;68405;47.190;27.558;2023-03-23T12:51:47;99595.41;;;22.77;20.21
78839;BME280;68405;47.190;27.558;2023-03-23T12:54:26;99589.15;;;22.74;20.22
78839;BME280;68405;47.190;27.558;2023-03-23T12:57:05;99593.44;;;22.63;20.18
78839;BME280;68405;47.190;27.558;2023-03-23T12:59:43;99593.20;;;22.40;20.37
78839;BME280;68405;47.190;27.558;2023-03-23T13:02:24;99591.71;;;22.16;20.53
78839;BME280;68405;47.190;27.558;2023-03-23T13:05:04;99592.98;;;22.08;20.74
78839;BME280;68405;47.190;27.558;2023-03-23T13:07:41;99588.98;;;22.07;21.05
78839;BME280;68405;47.190;27.558;2023-03-23T13:10:21;99584.50;;;22.14;21.17
78839;BME280;68405;47.190;27.558;2023-03-23T13:12:55;99583.60;;;22.32;21.22
78839;BME280;68405;47.190;27.558;2023-03-23T13:15:37;99578.52;;;22.48;21.21
78839;BME280;68405;47.190;27.558;2023-03-23T13:18:21;99570.30;;;22.57;21.11
78839;BME280;68405;47.190;27.558;2023-03-23T13:21:02;99571.97;;;22.58;21.19
78839;BME280;68405;47.190;27.558;2023-03-23T13:23:42;99564.33;;;22.37;21.44
78839;BME280;68405;47.190;27.558;2023-03-23T13:26:18;99562.33;;;22.25;21.49
78839;BME280;68405;47.190;27.558;2023-03-23T13:28:56;99559.18;;;22.16;21.59
78839;BME280;68405;47.190;27.558;2023-03-23T13:31:30;99559.96;;;22.15;21.69
78839;BME280;68405;47.190;27.558;2023-03-23T13:34:12;99560.20;;;22.13;21.77
78839;BME280;68405;47.190;27.558;2023-03-23T13:36:57;99559.85;;;22.13;21.96
78839;BME280;68405;47.190;27.558;2023-03-23T13:39:31;99556.17;;;22.02;21.87
78839;BME280;68405;47.190;27.558;2023-03-23T13:42:18;99551.84;;;21.97;21.97